sensor_id;sensor_type;location;lat;lon;timestamp;temperature;humidity
11221;DHT22;8517;53.546;10.104;2023-05-10T00:00:44;16.90;96.40
11221;DHT22;8517;53.546;10.104;2023-05-10T00:03:11;16.90;96.70
11221;DHT22;8517;53.546;10.104;2023-05-10T00:05:40;17.00;97.40
11221;DHT22;8517;53.546;10.104;2023-05-10T00:08:06;16.90;97.40
11221;DHT22;8517;53.546;10.104;2023-05-10T00:10:33;16.90;97.70
11221;DHT22;8517;53.546;10.104;2023-05-10T00:13:00;16.90;97.90
11221;DHT22;8517;53.546;10.104;2023-05-10T00:15:27;16.90;98.30
11221;DHT22;8517;53.546;10.104;2023-05-10T00:17:55;16.80;98.40
11221;DHT22;8517;53.546;10.104;2023-05-10T00:20:22;16.80;99.30
11221;DHT22;8517;53.546;10.104;2023-05-10T00:22:50;16.80;99.30
11221;DHT22;8517;53.546;10.104;2023-05-10T00:25:17;16.70;99.80
11221;DHT22;8517;53.546;10.104;2023-05-10T00:27:44;16.70;99.90
11221;DHT22;8517;53.546;10.104;2023-05-10T00:30:11;16.70;99.90
11221;DHT22;8517;53.546;10.104;2023-05-10T00:32:38;16.70;99.90
11221;DHT22;8517;53.546;10.104;2023-05-10T00:35:05;16.60;99.90
11221;DHT22;8517;53.546;10.104;2023-05-10T00:37:32;16.60;99.90
11221;DHT22;8517;53.546;10.104;2023-05-10T00:40:00;16.60;99.90
11221;DHT22;8517;53.546;10.104;2023-05-10T00:42:27;16.60;99.90
11221;DHT22;8517;53.546;10.104;2023-05-10T00:44:54;16.50;99.90
11221;DHT22;8517;53.546;10.104;2023-05-10T00:47:21;16.50;99.90
11221;DHT22;8517;53.546;10.104;2023-05-10T00:49:48;16.40;99.90
11221;DHT22;8517;53.546;10.104;2023-05-10T00:52:16;16.40;99.90
11221;DHT22;8517;53.546;10.104;2023-05-10T00:54:43;16.40;99.90
11221;DHT22;8517;53.546;10.104;2023-05-10T00:57:11;16.40;99.90
11221;DHT22;8517;53.546;10.104;2023-05-10T00:59:38;16.40;99.90
11221;DHT22;8517;53.546;10.104;2023-05-10T01:02:05;16.30;99.90
11221;DHT22;8517;53.546;10.104;2023-05-10T01:04:33;16.30;99.90
11221;DHT22;8517;53.546;10.104;2023-05-10T01:07:00;16.30;99.90
11221;DHT22;8517;53.546;10.104;2023-05-10T01:09:27;16.30;99.90
11221;DHT22;8517;53.546;10.104;2023-05-10T01:11:54;16.20;99.90
11221;DHT22;8517;53.546;10.104;2023-05-10T01:14:23;16.20;99.90
11221;DHT22;8517;53.546;10.104;2023-05-10T01:16:52;16.20;99.90
11221;DHT22;8517;53.546;10.104;2023-05-10T01:19:23;16.10;99.90
11221;DHT22;8517;53.546;10.104;2023-05-10T01:21:57;16.10;99.90
11221;DHT22;8517;53.546;10.104;2023-05-10T01:30:55;16.00;99.90
11221;DHT22;8517;53.546;10.104;2023-05-10T01:33:33;16.00;99.90
11221;DHT22;8517;53.546;10.104;2023-05-10T01:36:05;16.00;99.90
11221;DHT22;8517;53.546;10.104;2023-05-10T01:38:42;16.00;99.90
11221;DHT22;8517;53.546;10.104;2023-05-10T01:41:14;15.90;99.90
11221;DHT22;8517;53.546;10.104;2023-05-10T01:43:51;15.90;99.90
11221;DHT22;8517;53.546;10.104;2023-05-10T01:46:24;15.90;99.90
11221;DHT22;8517;53.546;10.104;2023-05-10T01:48:56;15.90;99.90
11221;DHT22;8517;53.546;10.104;2023-05-10T01:51:25;15.90;99.90
11221;DHT22;8517;53.546;10.104;2023-05-10T01:53:59;15.90;99.90
11221;DHT22;8517;53.546;10.104;2023-05-10T01:56:29;15.90;99.90
11221;DHT22;8517;53.546;10.104;2023-05-10T01:58:57;15.90;99.90
11221;DHT22;8517;53.546;10.104;2023-05-10T02:01:25;15.80;99.90
11221;DHT22;8517;53.546;10.104;2023-05-10T02:03:55;15.80;99.90
11221;DHT22;8517;53.546;10.104;2023-05-10T02:06:22;15.80;99.90
11221;DHT22;8517;53.546;10.104;2023-05-10T02:08:51;15.80;99.90
11221;DHT22;8517;53.546;10.104;2023-05-10T02:11:20;15.70;99.90
11221;DHT22;8517;53.546;10.104;2023-05-10T02:16:17;15.70;99.90
11221;DHT22;8517;53.546;10.104;2023-05-10T02:18:45;15.60;99.90
11221;DHT22;8517;53.546;10.104;2023-05-10T02:21:15;15.60;99.90
11221;DHT22;8517;53.546;10.104;2023-05-10T02:23:43;15.50;99.90
11221;DHT22;8517;53.546;10.104;2023-05-10T02:26:11;15.50;99.90
11221;DHT22;8517;53.546;10.104;2023-05-10T02:28:40;15.40;99.90
11221;DHT22;8517;53.546;10.104;2023-05-10T02:31:10;15.40;99.90
11221;DHT22;8517;53.546;10.104;2023-05-10T02:33:38;15.30;99.90
11221;DHT22;8517;53.546;10.104;2023-05-10T02:36:07;15.30;99.90
11221;DHT22;8517;53.546;10.104;2023-05-10T02:38:37;15.30;99.90
11221;DHT22;8517;53.546;10.104;2023-05-10T02:41:05;15.20;99.90
11221;DHT22;8517;53.546;10.104;2023-05-10T02:43:33;15.20;99.90
11221;DHT22;8517;53.546;10.104;2023-05-10T02:46:00;15.20;99.90
11221;DHT22;8517;53.546;10.104;2023-05-10T02:48:27;15.20;99.90
11221;DHT22;8517;53.546;10.104;2023-05-10T02:50:56;15.10;99.90
11221;DHT22;8517;53.546;10.104;2023-05-10T02:53:31;15.20;99.90
11221;DHT22;8517;53.546;10.104;2023-05-10T02:56:01;15.10;99.90
11221;DHT22;8517;53.546;10.104;2023-05-10T02:58:32;15.20;99.90
11221;DHT22;8517;53.546;10.104;2023-05-10T03:01:00;15.10;99.90
11221;DHT22;8517;53.546;10.104;2023-05-10T03:03:27;15.10;99.90
11221;DHT22;8517;53.546;10.104;2023-05-10T03:05:53;15.10;99.90
11221;DHT22;8517;53.546;10.104;2023-05-10T03:08:22;15.10;99.90
11221;DHT22;8517;53.546;10.104;2023-05-10T03:10:55;15.00;99.90
11221;DHT22;8517;53.546;10.104;2023-05-10T03:13:32;15.00;99.90
11221;DHT22;8517;53.546;10.104;2023-05-10T03:16:08;15.00;99.90
11221;DHT22;8517;53.546;10.104;2023-05-10T03:18:41;15.00;99.90
11221;DHT22;8517;53.546;10.104;2023-05-10T03:21:11;15.00;99.90
11221;DHT22;8517;53.546;10.104;2023-05-10T03:23:42;15.00;99.90
11221;DHT22;8517;53.546;10.104;2023-05-10T03:26:10;15.00;99.90
11221;DHT22;8517;53.546;10.104;2023-05-10T03:28:40;15.00;99.90
11221;DHT22;8517;53.546;10.104;2023-05-10T03:31:08;15.10;99.90
11221;DHT22;8517;53.546;10.104;2023-05-10T03:33:35;15.00;99.90
11221;DHT22;8517;53.546;10.104;2023-05-10T03:36:02;15.00;99.90
11221;DHT22;8517;53.546;10.104;2023-05-10T03:38:29;15.00;99.90
11221;DHT22;8517;53.546;10.104;2023-05-10T03:40:56;15.00;99.90
11221;DHT22;8517;53.546;10.104;2023-05-10T03:43:23;15.00;99.90
11221;DHT22;8517;53.546;10.104;2023-05-10T03:45:51;14.90;99.90
11221;DHT22;8517;53.546;10.104;2023-05-10T03:48:18;14.90;99.90
11221;DHT22;8517;53.546;10.104;2023-05-10T03:50:44;14.90;99.90
11221;DHT22;8517;53.546;10.104;2023-05-10T03:53:11;14.90;99.90
11221;DHT22;8517;53.546;10.104;2023-05-10T03:55:38;14.90;99.90
11221;DHT22;8517;53.546;10.104;2023-05-10T03:58:05;14.90;99.90
11221;DHT22;8517;53.546;10.104;2023-05-10T04:00:32;14.80;99.90
11221;DHT22;8517;53.546;10.104;2023-05-10T04:03:00;14.80;99.90
11221;DHT22;8517;53.546;10.104;2023-05-10T04:05:27;14.80;99.90
11221;DHT22;8517;53.546;10.104;2023-05-10T04:07:54;14.80;99.90
11221;DHT22;8517;53.546;10.104;2023-05-10T04:10:20;14.80;99.90
11221;DHT22;8517;53.546;10.104;2023-05-10T04:12:47;14.80;99.90
11221;DHT22;8517;53.546;10.104;2023-05-10T04:15:14;14.90;99.90
11221;DHT22;8517;53.546;10.104;2023-05-10T04:17:41;14.80;99.90
11221;DHT22;8517;53.546;10.104;2023-05-10T04:20:10;14.90;99.90
11221;DHT22;8517;53.546;10.104;2023-05-10T04:22:38;14.90;99.90
11221;DHT22;8517;53.546;10.104;2023-05-10T04:25:05;15.00;99.90
11221;DHT22;8517;53.546;10.104;2023-05-10T04:27:32;15.00;99.90
11221;DHT22;8517;53.546;10.104;2023-05-10T04:29:59;15.10;99.90
11221;DHT22;8517;53.546;10.104;2023-05-10T04:32:26;15.10;99.90
11221;DHT22;8517;53.546;10.104;2023-05-10T04:34:53;15.10;99.90
11221;DHT22;8517;53.546;10.104;2023-05-10T04:37:21;15.10;99.90
11221;DHT22;8517;53.546;10.104;2023-05-10T04:39:48;15.10;99.90
11221;DHT22;8517;53.546;10.104;2023-05-10T04:42:15;15.10;99.90
11221;DHT22;8517;53.546;10.104;2023-05-10T04:44:42;15.10;99.90
11221;DHT22;8517;53.546;10.104;2023-05-10T04:47:09;15.10;99.90
11221;DHT22;8517;53.546;10.104;2023-05-10T04:49:36;15.10;99.90
11221;DHT22;8517;53.546;10.104;2023-05-10T04:52:03;15.10;99.90
11221;DHT22;8517;53.546;10.104;2023-05-10T04:54:31;15.10;99.90
11221;DHT22;8517;53.546;10.104;2023-05-10T04:56:58;15.20;99.90
11221;DHT22;8517;53.546;10.104;2023-05-10T04:59:25;15.20;99.90
11221;DHT22;8517;53.546;10.104;2023-05-10T05:01:51;15.20;99.90
11221;DHT22;8517;53.546;10.104;2023-05-10T05:04:18;15.30;99.90
11221;DHT22;8517;53.546;10.104;2023-05-10T05:06:45;15.40;99.90
11221;DHT22;8517;53.546;10.104;2023-05-10T05:09:12;15.50;99.90
11221;DHT22;8517;53.546;10.104;2023-05-10T05:11:40;15.60;99.90
11221;DHT22;8517;53.546;10.104;2023-05-10T05:14:07;15.70;99.90
11221;DHT22;8517;53.546;10.104;2023-05-10T05:16:34;15.80;99.90
11221;DHT22;8517;53.546;10.104;2023-05-10T05:19:00;16.00;99.90
11221;DHT22;8517;53.546;10.104;2023-05-10T05:21:27;16.10;99.90
11221;DHT22;8517;53.546;10.104;2023-05-10T05:23:54;16.30;99.90
11221;DHT22;8517;53.546;10.104;2023-05-10T05:26:21;16.50;99.90
11221;DHT22;8517;53.546;10.104;2023-05-10T05:28:49;16.70;99.90
11221;DHT22;8517;53.546;10.104;2023-05-10T05:31:19;16.90;99.90
11221;DHT22;8517;53.546;10.104;2023-05-10T05:33:45;16.90;99.90
11221;DHT22;8517;53.546;10.104;2023-05-10T05:36:12;17.00;99.90
11221;DHT22;8517;53.546;10.104;2023-05-10T05:38:39;17.10;99.90
11221;DHT22;8517;53.546;10.104;2023-05-10T05:41:06;17.10;99.90
11221;DHT22;8517;53.546;10.104;2023-05-10T05:43:33;17.10;99.90
11221;DHT22;8517;53.546;10.104;2023-05-10T05:46:01;17.20;99.90
11221;DHT22;8517;53.546;10.104;2023-05-10T05:48:29;17.20;99.90
11221;DHT22;8517;53.546;10.104;2023-05-10T05:50:56;17.20;99.90
11221;DHT22;8517;53.546;10.104;2023-05-10T05:53:23;17.30;99.90
11221;DHT22;8517;53.546;10.104;2023-05-10T05:55:53;17.40;99.90
11221;DHT22;8517;53.546;10.104;2023-05-10T05:58:20;17.60;99.90
11221;DHT22;8517;53.546;10.104;2023-05-10T06:00:47;17.90;99.90
11221;DHT22;8517;53.546;10.104;2023-05-10T06:03:16;18.20;99.90
11221;DHT22;8517;53.546;10.104;2023-05-10T06:05:43;18.60;99.90
11221;DHT22;8517;53.546;10.104;2023-05-10T06:08:10;18.90;99.90
11221;DHT22;8517;53.546;10.104;2023-05-10T06:10:39;19.20;99.90
11221;DHT22;8517;53.546;10.104;2023-05-10T06:13:09;19.50;99.90
11221;DHT22;8517;53.546;10.104;2023-05-10T06:15:45;19.80;99.90
11221;DHT22;8517;53.546;10.104;2023-05-10T06:18:16;20.10;99.90
11221;DHT22;8517;53.546;10.104;2023-05-10T06:20:43;20.40;99.90
11221;DHT22;8517;53.546;10.104;2023-05-10T06:23:10;20.60;99.90
11221;DHT22;8517;53.546;10.104;2023-05-10T06:25:37;20.80;99.90
11221;DHT22;8517;53.546;10.104;2023-05-10T06:28:04;21.00;99.90
11221;DHT22;8517;53.546;10.104;2023-05-10T06:30:30;21.10;99.90
11221;DHT22;8517;53.546;10.104;2023-05-10T06:32:57;21.30;99.90
11221;DHT22;8517;53.546;10.104;2023-05-10T06:35:26;21.40;99.90
11221;DHT22;8517;53.546;10.104;2023-05-10T06:37:52;21.50;99.90
11221;DHT22;8517;53.546;10.104;2023-05-10T06:40:19;21.50;99.90
11221;DHT22;8517;53.546;10.104;2023-05-10T06:42:46;21.50;99.90
11221;DHT22;8517;53.546;10.104;2023-05-10T06:45:14;21.60;99.90
11221;DHT22;8517;53.546;10.104;2023-05-10T06:47:41;21.60;99.90
11221;DHT22;8517;53.546;10.104;2023-05-10T06:50:09;21.50;99.90
11221;DHT22;8517;53.546;10.104;2023-05-10T06:52:38;21.30;99.90
11221;DHT22;8517;53.546;10.104;2023-05-10T06:55:05;21.20;99.90
11221;DHT22;8517;53.546;10.104;2023-05-10T06:57:32;21.20;99.90
11221;DHT22;8517;53.546;10.104;2023-05-10T06:59:59;21.20;99.90
11221;DHT22;8517;53.546;10.104;2023-05-10T07:02:26;21.20;99.90
11221;DHT22;8517;53.546;10.104;2023-05-10T07:04:53;21.20;99.90
11221;DHT22;8517;53.546;10.104;2023-05-10T07:07:20;21.20;99.90
11221;DHT22;8517;53.546;10.104;2023-05-10T07:09:48;21.20;99.90
11221;DHT22;8517;53.546;10.104;2023-05-10T07:12:15;21.10;99.90
11221;DHT22;8517;53.546;10.104;2023-05-10T07:14:42;21.00;99.90
11221;DHT22;8517;53.546;10.104;2023-05-10T07:17:09;20.90;99.90
11221;DHT22;8517;53.546;10.104;2023-05-10T07:19:36;20.80;99.90
11221;DHT22;8517;53.546;10.104;2023-05-10T07:22:03;20.90;99.90
11221;DHT22;8517;53.546;10.104;2023-05-10T07:24:29;20.90;99.90
11221;DHT22;8517;53.546;10.104;2023-05-10T07:26:58;21.00;99.90
11221;DHT22;8517;53.546;10.104;2023-05-10T07:29:25;21.10;99.90
11221;DHT22;8517;53.546;10.104;2023-05-10T07:31:52;21.20;99.90
11221;DHT22;8517;53.546;10.104;2023-05-10T07:34:19;21.30;99.90
11221;DHT22;8517;53.546;10.104;2023-05-10T07:36:46;21.50;99.90
11221;DHT22;8517;53.546;10.104;2023-05-10T07:39:13;21.60;99.90
11221;DHT22;8517;53.546;10.104;2023-05-10T07:41:39;21.60;99.90
11221;DHT22;8517;53.546;10.104;2023-05-10T07:44:08;21.60;99.90
11221;DHT22;8517;53.546;10.104;2023-05-10T07:46:34;21.60;99.90
11221;DHT22;8517;53.546;10.104;2023-05-10T07:49:01;21.70;99.90
11221;DHT22;8517;53.546;10.104;2023-05-10T07:51:28;21.70;99.90
11221;DHT22;8517;53.546;10.104;2023-05-10T07:53:55;21.70;99.90
11221;DHT22;8517;53.546;10.104;2023-05-10T07:56:24;21.70;99.90
11221;DHT22;8517;53.546;10.104;2023-05-10T07:58:52;21.80;99.90
11221;DHT22;8517;53.546;10.104;2023-05-10T08:01:21;21.80;99.90
11221;DHT22;8517;53.546;10.104;2023-05-10T08:03:49;21.80;99.90
11221;DHT22;8517;53.546;10.104;2023-05-10T08:06:17;21.70;99.90
11221;DHT22;8517;53.546;10.104;2023-05-10T08:08:44;21.70;99.90
11221;DHT22;8517;53.546;10.104;2023-05-10T08:11:14;21.60;99.90
11221;DHT22;8517;53.546;10.104;2023-05-10T08:13:41;21.50;99.90
11221;DHT22;8517;53.546;10.104;2023-05-10T08:16:08;21.40;99.90
11221;DHT22;8517;53.546;10.104;2023-05-10T08:18:37;21.10;99.90
11221;DHT22;8517;53.546;10.104;2023-05-10T08:21:04;21.00;99.90
11221;DHT22;8517;53.546;10.104;2023-05-10T08:23:31;20.90;99.90
11221;DHT22;8517;53.546;10.104;2023-05-10T08:25:59;20.70;99.90
11221;DHT22;8517;53.546;10.104;2023-05-10T08:28:25;20.50;99.90
11221;DHT22;8517;53.546;10.104;2023-05-10T08:30:52;20.40;99.90
11221;DHT22;8517;53.546;10.104;2023-05-10T08:33:19;20.30;99.90
11221;DHT22;8517;53.546;10.104;2023-05-10T08:35:47;20.20;99.90
11221;DHT22;8517;53.546;10.104;2023-05-10T08:38:14;20.20;99.90
11221;DHT22;8517;53.546;10.104;2023-05-10T08:40:42;20.10;99.90
11221;DHT22;8517;53.546;10.104;2023-05-10T08:43:11;20.10;99.90
11221;DHT22;8517;53.546;10.104;2023-05-10T08:45:39;20.00;99.90
11221;DHT22;8517;53.546;10.104;2023-05-10T08:48:07;20.00;99.90
11221;DHT22;8517;53.546;10.104;2023-05-10T08:50:35;19.90;99.90
11221;DHT22;8517;53.546;10.104;2023-05-10T08:53:06;19.90;99.90
11221;DHT22;8517;53.546;10.104;2023-05-10T08:55:36;19.90;99.90
11221;DHT22;8517;53.546;10.104;2023-05-10T08:58:04;19.90;99.90
11221;DHT22;8517;53.546;10.104;2023-05-10T09:00:31;19.90;99.90
11221;DHT22;8517;53.546;10.104;2023-05-10T09:02:58;19.90;99.90
11221;DHT22;8517;53.546;10.104;2023-05-10T09:05:25;19.90;99.90
11221;DHT22;8517;53.546;10.104;2023-05-10T09:07:53;19.90;99.90
11221;DHT22;8517;53.546;10.104;2023-05-10T09:10:21;19.90;99.90
11221;DHT22;8517;53.546;10.104;2023-05-10T09:12:51;19.90;99.90
11221;DHT22;8517;53.546;10.104;2023-05-10T09:15:18;19.90;99.90
11221;DHT22;8517;53.546;10.104;2023-05-10T09:17:46;19.90;99.90
11221;DHT22;8517;53.546;10.104;2023-05-10T09:20:13;19.90;99.90
11221;DHT22;8517;53.546;10.104;2023-05-10T09:22:40;19.80;99.90
11221;DHT22;8517;53.546;10.104;2023-05-10T09:25:08;19.80;99.90
11221;DHT22;8517;53.546;10.104;2023-05-10T09:27:38;19.80;99.90
11221;DHT22;8517;53.546;10.104;2023-05-10T09:30:07;19.70;99.90
11221;DHT22;8517;53.546;10.104;2023-05-10T09:32:37;19.70;99.90
11221;DHT22;8517;53.546;10.104;2023-05-10T09:35:08;19.70;99.90
11221;DHT22;8517;53.546;10.104;2023-05-10T09:37:35;19.70;99.90
11221;DHT22;8517;53.546;10.104;2023-05-10T09:40:05;19.70;99.90
11221;DHT22;8517;53.546;10.104;2023-05-10T09:42:33;19.70;99.90
11221;DHT22;8517;53.546;10.104;2023-05-10T09:45:02;19.70;99.90
11221;DHT22;8517;53.546;10.104;2023-05-10T09:47:32;19.60;99.90
11221;DHT22;8517;53.546;10.104;2023-05-10T09:49:59;19.60;99.90
11221;DHT22;8517;53.546;10.104;2023-05-10T09:52:29;19.50;99.90
11221;DHT22;8517;53.546;10.104;2023-05-10T09:54:56;19.50;99.90
11221;DHT22;8517;53.546;10.104;2023-05-10T09:57:24;19.50;99.90
11221;DHT22;8517;53.546;10.104;2023-05-10T09:59:51;19.40;99.90
11221;DHT22;8517;53.546;10.104;2023-05-10T10:02:21;19.30;99.90
11221;DHT22;8517;53.546;10.104;2023-05-10T10:04:55;19.30;99.90
11221;DHT22;8517;53.546;10.104;2023-05-10T10:07:23;19.20;99.90
11221;DHT22;8517;53.546;10.104;2023-05-10T10:09:51;19.10;99.90
11221;DHT22;8517;53.546;10.104;2023-05-10T10:12:18;19.00;99.90
11221;DHT22;8517;53.546;10.104;2023-05-10T10:14:46;18.90;99.90
11221;DHT22;8517;53.546;10.104;2023-05-10T10:17:15;18.80;99.90
11221;DHT22;8517;53.546;10.104;2023-05-10T10:19:43;18.60;99.90
11221;DHT22;8517;53.546;10.104;2023-05-10T10:22:11;18.50;99.90
11221;DHT22;8517;53.546;10.104;2023-05-10T10:24:38;18.30;99.90
11221;DHT22;8517;53.546;10.104;2023-05-10T10:27:15;18.10;99.90
11221;DHT22;8517;53.546;10.104;2023-05-10T10:29:52;18.00;99.90
11221;DHT22;8517;53.546;10.104;2023-05-10T10:32:30;17.70;99.90
11221;DHT22;8517;53.546;10.104;2023-05-10T10:35:01;17.60;99.90
11221;DHT22;8517;53.546;10.104;2023-05-10T10:37:43;17.40;99.90
11221;DHT22;8517;53.546;10.104;2023-05-10T10:40:24;17.30;99.90
11221;DHT22;8517;53.546;10.104;2023-05-10T10:42:51;17.10;99.90
11221;DHT22;8517;53.546;10.104;2023-05-10T10:45:20;17.00;99.90
11221;DHT22;8517;53.546;10.104;2023-05-10T10:47:47;16.90;99.90
11221;DHT22;8517;53.546;10.104;2023-05-10T10:50:16;16.80;99.90
11221;DHT22;8517;53.546;10.104;2023-05-10T10:52:43;16.60;99.90
11221;DHT22;8517;53.546;10.104;2023-05-10T10:55:12;16.60;99.90
11221;DHT22;8517;53.546;10.104;2023-05-10T10:57:44;16.50;99.90
11221;DHT22;8517;53.546;10.104;2023-05-10T11:00:19;16.50;99.90
11221;DHT22;8517;53.546;10.104;2023-05-10T11:02:47;16.40;99.90
11221;DHT22;8517;53.546;10.104;2023-05-10T11:05:40;16.40;99.90
11221;DHT22;8517;53.546;10.104;2023-05-10T11:08:16;16.40;99.90
11221;DHT22;8517;53.546;10.104;2023-05-10T11:13:39;16.50;99.90
11221;DHT22;8517;53.546;10.104;2023-05-10T11:16:15;16.50;99.90
11221;DHT22;8517;53.546;10.104;2023-05-10T11:18:53;16.60;99.90
11221;DHT22;8517;53.546;10.104;2023-05-10T11:21:22;16.60;99.90
11221;DHT22;8517;53.546;10.104;2023-05-10T11:23:50;16.60;99.90
11221;DHT22;8517;53.546;10.104;2023-05-10T11:26:17;16.70;99.90
11221;DHT22;8517;53.546;10.104;2023-05-10T11:28:45;16.70;99.90
11221;DHT22;8517;53.546;10.104;2023-05-10T11:31:13;16.70;99.90
11221;DHT22;8517;53.546;10.104;2023-05-10T11:33:43;16.70;99.90
11221;DHT22;8517;53.546;10.104;2023-05-10T11:36:11;16.80;99.90
11221;DHT22;8517;53.546;10.104;2023-05-10T11:38:39;16.80;99.90
11221;DHT22;8517;53.546;10.104;2023-05-10T11:41:08;16.80;99.90
11221;DHT22;8517;53.546;10.104;2023-05-10T11:43:35;16.80;99.90
11221;DHT22;8517;53.546;10.104;2023-05-10T11:46:04;16.80;99.90
11221;DHT22;8517;53.546;10.104;2023-05-10T11:48:32;16.80;99.90
11221;DHT22;8517;53.546;10.104;2023-05-10T11:50:58;16.80;99.90
11221;DHT22;8517;53.546;10.104;2023-05-10T11:53:28;16.80;99.90
11221;DHT22;8517;53.546;10.104;2023-05-10T11:56:02;16.80;99.90
11221;DHT22;8517;53.546;10.104;2023-05-10T11:58:30;16.80;99.90
11221;DHT22;8517;53.546;10.104;2023-05-10T12:00:57;16.80;99.90
11221;DHT22;8517;53.546;10.104;2023-05-10T12:03:24;16.80;99.90
11221;DHT22;8517;53.546;10.104;2023-05-10T12:05:51;16.80;99.90
11221;DHT22;8517;53.546;10.104;2023-05-10T12:08:21;16.90;99.90
11221;DHT22;8517;53.546;10.104;2023-05-10T12:10:48;16.90;99.90
11221;DHT22;8517;53.546;10.104;2023-05-10T12:13:17;16.90;99.90
11221;DHT22;8517;53.546;10.104;2023-05-10T12:15:44;17.00;99.90
11221;DHT22;8517;53.546;10.104;2023-05-10T12:18:11;17.10;99.90
11221;DHT22;8517;53.546;10.104;2023-05-10T12:20:38;17.10;99.90
11221;DHT22;8517;53.546;10.104;2023-05-10T12:23:07;17.20;99.90
11221;DHT22;8517;53.546;10.104;2023-05-10T12:25:36;17.10;99.90
11221;DHT22;8517;53.546;10.104;2023-05-10T12:28:04;17.20;99.90
11221;DHT22;8517;53.546;10.104;2023-05-10T12:30:34;17.20;99.90
11221;DHT22;8517;53.546;10.104;2023-05-10T12:33:03;17.20;99.90
11221;DHT22;8517;53.546;10.104;2023-05-10T12:35:38;17.20;99.90
11221;DHT22;8517;53.546;10.104;2023-05-10T12:38:24;17.30;99.90
11221;DHT22;8517;53.546;10.104;2023-05-10T12:40:51;17.30;99.90
11221;DHT22;8517;53.546;10.104;2023-05-10T12:43:18;17.30;99.90
11221;DHT22;8517;53.546;10.104;2023-05-10T12:45:47;17.40;99.90
11221;DHT22;8517;53.546;10.104;2023-05-10T12:48:14;17.40;99.90
11221;DHT22;8517;53.546;10.104;2023-05-10T12:50:41;17.40;99.90
11221;DHT22;8517;53.546;10.104;2023-05-10T12:53:08;17.50;99.90
11221;DHT22;8517;53.546;10.104;2023-05-10T12:55:35;17.50;99.90
11221;DHT22;8517;53.546;10.104;2023-05-10T12:58:01;17.60;99.90
11221;DHT22;8517;53.546;10.104;2023-05-10T13:00:28;17.70;99.90
11221;DHT22;8517;53.546;10.104;2023-05-10T13:02:56;17.70;99.90
11221;DHT22;8517;53.546;10.104;2023-05-10T13:05:23;17.80;99.90
11221;DHT22;8517;53.546;10.104;2023-05-10T13:07:50;17.80;99.90
11221;DHT22;8517;53.546;10.104;2023-05-10T13:10:17;17.80;99.90
11221;DHT22;8517;53.546;10.104;2023-05-10T13:12:48;17.80;99.90
11221;DHT22;8517;53.546;10.104;2023-05-10T13:15:14;17.90;99.90
11221;DHT22;8517;53.546;10.104;2023-05-10T13:17:41;17.90;99.90
11221;DHT22;8517;53.546;10.104;2023-05-10T13:20:11;18.00;99.90
11221;DHT22;8517;53.546;10.104;2023-05-10T13:22:38;18.00;99.90
11221;DHT22;8517;53.546;10.104;2023-05-10T13:25:05;18.10;99.90
11221;DHT22;8517;53.546;10.104;2023-05-10T13:27:32;18.10;99.90
11221;DHT22;8517;53.546;10.104;2023-05-10T13:29:59;18.10;99.90
11221;DHT22;8517;53.546;10.104;2023-05-10T13:32:25;18.10;99.90
11221;DHT22;8517;53.546;10.104;2023-05-10T13:34:52;18.20;99.90
11221;DHT22;8517;53.546;10.104;2023-05-10T13:37:20;18.20;99.90
11221;DHT22;8517;53.546;10.104;2023-05-10T13:39:48;18.20;99.90
11221;DHT22;8517;53.546;10.104;2023-05-10T13:42:15;18.30;99.90
11221;DHT22;8517;53.546;10.104;2023-05-10T13:44:41;18.30;99.90
11221;DHT22;8517;53.546;10.104;2023-05-10T13:47:08;18.40;99.90
11221;DHT22;8517;53.546;10.104;2023-05-10T13:49:35;18.40;99.90
11221;DHT22;8517;53.546;10.104;2023-05-10T13:52:02;18.40;99.90
11221;DHT22;8517;53.546;10.104;2023-05-10T13:54:35;18.50;99.90
11221;DHT22;8517;53.546;10.104;2023-05-10T13:57:03;18.50;99.90
11221;DHT22;8517;53.546;10.104;2023-05-10T13:59:31;18.50;99.90
11221;DHT22;8517;53.546;10.104;2023-05-10T14:01:57;18.60;99.90
11221;DHT22;8517;53.546;10.104;2023-05-10T14:04:25;18.60;99.90
11221;DHT22;8517;53.546;10.104;2023-05-10T14:06:51;18.60;99.90
11221;DHT22;8517;53.546;10.104;2023-05-10T14:09:19;18.70;99.90
11221;DHT22;8517;53.546;10.104;2023-05-10T14:11:47;18.60;99.90
11221;DHT22;8517;53.546;10.104;2023-05-10T14:14:14;18.70;99.90
11221;DHT22;8517;53.546;10.104;2023-05-10T14:16:42;18.70;99.90
11221;DHT22;8517;53.546;10.104;2023-05-10T14:19:10;18.70;99.90
11221;DHT22;8517;53.546;10.104;2023-05-10T14:21:37;18.70;99.90
11221;DHT22;8517;53.546;10.104;2023-05-10T14:24:05;18.70;99.90
11221;DHT22;8517;53.546;10.104;2023-05-10T14:26:32;18.80;99.90
11221;DHT22;8517;53.546;10.104;2023-05-10T14:29:01;18.80;99.90
11221;DHT22;8517;53.546;10.104;2023-05-10T14:31:28;18.80;99.90
11221;DHT22;8517;53.546;10.104;2023-05-10T14:33:55;18.80;99.90
11221;DHT22;8517;53.546;10.104;2023-05-10T14:36:22;18.80;99.90
11221;DHT22;8517;53.546;10.104;2023-05-10T14:38:49;18.80;99.90
11221;DHT22;8517;53.546;10.104;2023-05-10T14:41:16;18.80;99.90
11221;DHT22;8517;53.546;10.104;2023-05-10T14:43:43;18.90;99.90
11221;DHT22;8517;53.546;10.104;2023-05-10T14:46:11;18.90;99.90
11221;DHT22;8517;53.546;10.104;2023-05-10T14:48:38;18.90;99.90
11221;DHT22;8517;53.546;10.104;2023-05-10T14:51:05;18.90;99.90
11221;DHT22;8517;53.546;10.104;2023-05-10T14:53:32;18.90;99.90
11221;DHT22;8517;53.546;10.104;2023-05-10T14:55:59;18.90;99.90
11221;DHT22;8517;53.546;10.104;2023-05-10T14:58:26;18.90;99.90
11221;DHT22;8517;53.546;10.104;2023-05-10T15:00:53;18.90;99.90
11221;DHT22;8517;53.546;10.104;2023-05-10T15:03:21;19.00;99.90
11221;DHT22;8517;53.546;10.104;2023-05-10T15:05:48;19.00;99.90
11221;DHT22;8517;53.546;10.104;2023-05-10T15:08:15;19.00;99.90
11221;DHT22;8517;53.546;10.104;2023-05-10T15:10:42;19.00;99.90
11221;DHT22;8517;53.546;10.104;2023-05-10T15:13:09;19.00;99.90
11221;DHT22;8517;53.546;10.104;2023-05-10T15:15:36;19.10;99.90
11221;DHT22;8517;53.546;10.104;2023-05-10T15:18:03;19.00;99.90
11221;DHT22;8517;53.546;10.104;2023-05-10T15:20:32;19.10;99.90
11221;DHT22;8517;53.546;10.104;2023-05-10T15:22:59;19.00;99.90
11221;DHT22;8517;53.546;10.104;2023-05-10T15:25:26;19.20;99.90
11221;DHT22;8517;53.546;10.104;2023-05-10T15:27:54;19.20;99.90
11221;DHT22;8517;53.546;10.104;2023-05-10T15:30:21;19.20;99.90
11221;DHT22;8517;53.546;10.104;2023-05-10T15:32:47;19.30;99.90
11221;DHT22;8517;53.546;10.104;2023-05-10T15:35:14;19.30;99.90
11221;DHT22;8517;53.546;10.104;2023-05-10T15:37:43;19.30;99.90
11221;DHT22;8517;53.546;10.104;2023-05-10T15:40:11;19.30;99.90
11221;DHT22;8517;53.546;10.104;2023-05-10T15:42:38;19.40;99.90
11221;DHT22;8517;53.546;10.104;2023-05-10T15:45:05;19.30;99.90
11221;DHT22;8517;53.546;10.104;2023-05-10T15:47:32;19.30;99.90